createdAt,value
2022-12-15T00:03:24.585Z,58.78
2022-12-15T00:08:45.191Z,71.22
2022-12-15T00:14:05.788Z,60.22
2022-12-15T00:19:27.001Z,61.08
2022-12-15T00:24:49.681Z,68.25
2022-12-15T00:30:11.053Z,59.67
2022-12-15T00:35:32.191Z,59.30
2022-12-15T00:40:34.430Z,60.95
2022-12-15T00:45:55.238Z,70.03
2022-12-15T00:50:57.482Z,59.30
2022-12-15T00:56:18.043Z,59.45
2022-12-15T01:01:38.654Z,59.08
2022-12-15T01:06:59.550Z,58.92
2022-12-15T01:12:19.939Z,70.18
2022-12-15T01:23:03.740Z,62.70
2022-12-15T01:28:06.047Z,59.20
2022-12-15T01:33:08.259Z,65.78
2022-12-15T01:38:11.131Z,63.38
2022-12-15T01:43:16.713Z,63.13
2022-12-15T01:48:30.769Z,62.95
2022-12-15T01:53:39.327Z,65.68
2022-12-15T01:58:44.630Z,55.13
2022-12-15T02:03:47.774Z,65.45
2022-12-15T02:08:54.984Z,67.32
2022-12-15T02:14:04.941Z,56.85
2022-12-15T02:19:22.341Z,67.65
2022-12-15T02:24:57.686Z,60.80
2022-12-15T02:30:12.745Z,54.60
2022-12-15T02:35:32.672Z,66.43
2022-12-15T02:40:35.023Z,63.40
2022-12-15T02:46:05.071Z,67.40
2022-12-15T02:51:13.551Z,60.05
2022-12-15T02:56:24.450Z,59.78
2022-12-15T03:01:31.087Z,65.22
2022-12-15T03:06:33.490Z,63.63
2022-12-15T03:11:36.966Z,66.97
2022-12-15T03:16:39.429Z,62.17
2022-12-15T03:21:41.781Z,59.50
2022-12-15T03:26:43.979Z,56.28
2022-12-15T03:31:46.233Z,63.70
2022-12-15T03:36:51.994Z,51.55
2022-12-15T03:41:54.227Z,56.55
2022-12-15T03:47:02.808Z,60.03
2022-12-15T03:52:05.628Z,60.25
2022-12-15T03:57:07.900Z,48.08
2022-12-15T04:02:12.208Z,56.00
2022-12-15T04:13:01.406Z,58.38
2022-12-15T04:18:10.091Z,61.63
2022-12-15T04:23:14.077Z,57.33
2022-12-15T04:28:34.923Z,55.53
2022-12-15T04:33:59.864Z,63.22
2022-12-15T04:39:23.967Z,64.80
2022-12-15T04:44:45.254Z,61.97
2022-12-15T04:50:11.279Z,55.38
2022-12-15T04:55:32.224Z,61.03
2022-12-15T05:00:53.110Z,61.17
2022-12-15T05:06:13.641Z,63.63
2022-12-15T05:11:34.488Z,57.83
2022-12-15T05:16:55.586Z,63.75
2022-12-15T05:22:16.362Z,72.80
2022-12-15T05:27:36.818Z,70.80
2022-12-15T05:32:39.275Z,73.53
2022-12-15T05:37:41.598Z,77.95
2022-12-15T05:42:43.782Z,73.47
2022-12-15T05:47:52.818Z,69.53
2022-12-15T05:52:55.656Z,64.72
2022-12-15T05:57:57.911Z,68.30
2022-12-15T06:03:00.293Z,66.40
2022-12-15T06:08:04.033Z,74.15
2022-12-15T06:13:06.243Z,65.47
2022-12-15T06:18:08.456Z,73.25
2022-12-15T06:23:11.914Z,72.40
2022-12-15T06:28:14.121Z,74.13
2022-12-15T06:33:16.384Z,73.65
2022-12-15T06:38:18.617Z,76.95
2022-12-15T06:43:20.872Z,66.18
2022-12-15T06:48:24.404Z,71.30
2022-12-15T06:53:26.613Z,75.82
2022-12-15T06:58:28.986Z,66.82
2022-12-15T07:03:32.091Z,78.47
2022-12-15T07:08:41.163Z,80.65
2022-12-15T07:13:43.951Z,84.47
2022-12-15T07:18:46.181Z,93.38
2022-12-15T07:23:57.061Z,88.93
2022-12-15T07:28:59.706Z,93.25
2022-12-15T07:47:37.909Z,98.30
2022-12-15T07:52:40.220Z,94.15
2022-12-15T07:57:42.548Z,108.00
2022-12-15T08:02:44.911Z,90.68
2022-12-15T08:07:52.362Z,96.50
2022-12-15T08:12:55.814Z,104.53
2022-12-15T08:17:58.039Z,97.22
2022-12-15T08:23:00.318Z,108.30
2022-12-15T08:28:02.787Z,102.47
2022-12-15T08:33:05.028Z,101.78
2022-12-15T08:38:07.213Z,110.15
2022-12-15T08:43:09.413Z,99.63
2022-12-15T08:48:11.620Z,102.07
2022-12-15T08:53:30.765Z,99.97
2022-12-15T08:58:34.142Z,91.50
2022-12-15T09:03:37.079Z,89.55
2022-12-15T09:08:39.346Z,80.13
2022-12-15T09:13:41.611Z,80.95
2022-12-15T09:18:46.672Z,83.00
2022-12-15T09:23:51.886Z,93.65
2022-12-15T09:28:57.645Z,85.95
2022-12-15T09:34:01.383Z,72.20
2022-12-15T09:39:03.786Z,80.88
2022-12-15T09:44:19.418Z,82.70
2022-12-15T09:49:36.504Z,79.75
2022-12-15T09:54:41.759Z,71.40
2022-12-15T10:00:25.653Z,69.80
2022-12-15T10:05:50.019Z,74.55
2022-12-15T10:10:58.825Z,71.55
2022-12-15T10:16:07.169Z,68.05
2022-12-15T10:21:14.156Z,68.07
2022-12-15T10:26:23.342Z,62.75
2022-12-15T10:31:51.351Z,56.42
2022-12-15T10:36:54.628Z,60.13
2022-12-15T10:42:15.459Z,57.28
2022-12-15T10:47:19.706Z,59.60
2022-12-15T10:52:34.624Z,62.33
2022-12-15T10:57:36.807Z,58.25
2022-12-15T11:02:39.276Z,48.88
2022-12-15T11:07:49.427Z,54.83
2022-12-15T11:13:23.832Z,55.93
2022-12-15T11:18:38.883Z,54.53
2022-12-15T11:23:59.574Z,50.03
2022-12-15T11:29:13.661Z,53.20
2022-12-15T11:34:22.599Z,53.75
2022-12-15T11:39:57.052Z,49.20
2022-12-15T11:44:59.285Z,143.65
2022-12-15T11:50:13.368Z,54.35
2022-12-15T11:55:33.205Z,56.72
2022-12-15T12:00:55.147Z,51.40
2022-12-15T12:06:10.585Z,54.72
2022-12-15T12:11:20.336Z,49.70
2022-12-15T12:17:00.321Z,46.38
2022-12-15T12:22:30.234Z,47.40
2022-12-15T12:27:35.174Z,50.50
2022-12-15T12:32:43.387Z,51.15
2022-12-15T12:38:03.257Z,48.15
2022-12-15T12:43:14.189Z,50.97
2022-12-15T12:48:46.312Z,51.88
2022-12-15T12:53:51.468Z,52.10
2022-12-15T12:58:53.655Z,48.45
2022-12-15T13:04:13.771Z,53.38
2022-12-15T13:09:21.888Z,54.55
2022-12-15T13:14:30.730Z,52.80
2022-12-15T13:20:01.200Z,49.90
2022-12-15T13:25:40.368Z,54.63
2022-12-15T13:31:16.919Z,53.90
2022-12-15T13:36:37.738Z,58.03
2022-12-15T13:42:31.635Z,53.47
2022-12-15T13:47:21.742Z,55.05
2022-12-15T13:52:44.336Z,55.00
2022-12-15T13:57:54.316Z,59.03
2022-12-15T14:03:07.223Z,66.72
2022-12-15T14:08:15.345Z,66.35
2022-12-15T14:13:24.907Z,69.40
2022-12-15T14:23:57.738Z,74.78
2022-12-15T14:29:06.243Z,69.15
2022-12-15T14:34:23.748Z,71.82
2022-12-15T14:39:42.460Z,69.55
2022-12-15T14:50:12.085Z,71.93
2022-12-15T14:55:23.516Z,82.35
2022-12-15T15:00:27.723Z,74.30
2022-12-15T15:03:15.670Z,67.47
2022-12-15T15:05:33.128Z,65.88
2022-12-15T15:10:35.458Z,86.93
2022-12-15T15:15:38.198Z,69.53
2022-12-15T15:20:41.067Z,72.47
2022-12-15T15:26:10.582Z,80.30
2022-12-15T15:31:24.753Z,75.90
2022-12-15T15:36:36.135Z,74.20
2022-12-15T15:41:38.316Z,73.90
2022-12-15T15:46:49.419Z,79.90
2022-12-15T15:51:51.873Z,65.45
2022-12-15T15:56:54.051Z,70.43
2022-12-15T16:01:59.278Z,74.45
2022-12-15T16:07:01.877Z,74.20
2022-12-15T16:12:04.259Z,67.45
2022-12-15T16:17:09.537Z,76.47
2022-12-15T16:22:22.460Z,72.43
2022-12-15T16:27:25.384Z,65.20
2022-12-15T16:32:27.612Z,71.28
2022-12-15T16:37:32.472Z,75.93
2022-12-15T16:42:38.418Z,79.60
2022-12-15T16:47:40.685Z,78.78
2022-12-15T16:52:44.373Z,69.30
2022-12-15T16:57:47.621Z,88.32
2022-12-15T17:02:50.026Z,76.47
2022-12-15T17:07:56.161Z,70.03
2022-12-15T17:13:05.868Z,78.40
2022-12-15T17:18:12.885Z,80.00
2022-12-15T17:23:21.848Z,69.18
2022-12-15T17:28:28.677Z,80.18
2022-12-15T17:33:34.827Z,75.03
2022-12-15T17:38:37.735Z,80.45
2022-12-15T17:43:41.541Z,77.68
2022-12-15T17:48:44.370Z,83.32
2022-12-15T17:53:48.585Z,81.03
2022-12-15T17:58:50.745Z,76.43
2022-12-15T18:03:52.968Z,87.15
2022-12-15T18:08:55.455Z,88.90
2022-12-15T18:13:58.159Z,90.85
2022-12-15T18:19:01.105Z,79.97
2022-12-15T18:24:04.279Z,78.20
2022-12-15T18:29:18.121Z,84.80
2022-12-15T18:34:23.125Z,81.82
2022-12-15T18:39:26.214Z,84.00
2022-12-15T18:44:31.888Z,85.38
2022-12-15T18:49:34.140Z,87.47
2022-12-15T18:54:36.428Z,87.78
2022-12-15T18:59:38.569Z,94.10
2022-12-15T19:04:40.739Z,94.78
2022-12-15T19:09:42.988Z,89.38
2022-12-15T19:14:50.513Z,83.10
2022-12-15T19:20:11.276Z,99.35
2022-12-15T19:25:27.196Z,94.50
2022-12-15T19:30:41.693Z,98.30
2022-12-15T19:35:51.148Z,91.68
2022-12-15T19:40:55.108Z,90.57
2022-12-15T19:45:57.796Z,94.97
2022-12-15T19:51:00.178Z,89.63
2022-12-15T19:56:02.411Z,84.85
2022-12-15T20:01:07.184Z,117.47
2022-12-15T20:06:17.278Z,106.28
2022-12-15T20:11:32.339Z,99.13
2022-12-15T20:16:34.573Z,87.22
2022-12-15T20:21:38.854Z,94.35
2022-12-15T20:26:42.624Z,96.20
2022-12-15T20:31:44.843Z,96.20
2022-12-15T20:36:50.149Z,79.25
2022-12-15T20:41:53.398Z,87.82
2022-12-15T20:46:55.768Z,94.60
2022-12-15T20:51:57.942Z,87.18
2022-12-15T20:57:00.192Z,93.75
2022-12-15T21:02:02.536Z,88.28
2022-12-15T21:07:06.076Z,89.75
2022-12-15T21:12:21.013Z,83.95
2022-12-15T21:17:27.008Z,85.00
2022-12-15T21:22:29.294Z,91.68
2022-12-15T21:27:31.499Z,88.57
2022-12-15T21:32:33.643Z,87.20
2022-12-15T21:37:36.392Z,91.05
2022-12-15T21:42:38.915Z,91.03
2022-12-15T21:48:00.348Z,87.93
2022-12-15T21:53:03.912Z,85.65
2022-12-15T21:58:18.244Z,92.38
2022-12-15T22:03:20.467Z,73.60
2022-12-15T22:08:23.116Z,85.93
2022-12-15T22:13:25.341Z,87.95
2022-12-15T22:18:27.583Z,92.75
2022-12-15T22:23:29.971Z,80.40
2022-12-15T22:28:32.696Z,81.07
2022-12-15T22:33:35.327Z,88.10
2022-12-15T22:38:37.594Z,89.93
2022-12-15T22:43:43.366Z,99.82
